Op dit moment wordt er hard gewerkt aan deze versie van Weerstation-Wijk.nl
Het kan zijn dat er dingen nog niet helemaal kloppen of goed werken.

Weerstation-Wijk.nl. Voor het weer van Wijk bij Duurstede en omstreken



Webcam Weerstation-Wijk Meer informatie Webcam Weerstation-Wijk


Bezoek ook deze websites:

Template documentation
and downloads

And another site



METAR rapporten vliegvelden

   
EHVK - Volkel Rnlafb, Netherlands
Afstand tot: ZW 18 km
Gewijzigd: May 27 2020 12:55 am
Bewolking  
Bewolking  
   Wind: NNW 1.9 km/h
Wind: NNW 1.9 km/h
Temperatuur: 12°C
Dauwpunt: 8°C
Vochtigheid: 77%
Barometer: 1034 hPa
Bewolking: Bewolking
Zicht: meer dan 10 km
Bewolking: Bewolking 34000 ft
EHVK 262255Z AUTO 34001KT 9999 OVC340 12/08 Q1034 BLU
EDLV - Niederrhein, Germany
Afstand tot: ZO 25 km
Gewijzigd: May 26 2020 3:50 pm
Verouderd
Helder  
Helder  
   Wind: NW 13 km/h
Wind: NW 13 km/h
Temperatuur: 22°C
Dauwpunt: 7°C
Vochtigheid: 38%
Barometer: 1034 hPa
Zicht: meer dan 10 km
Bewolking: Helder
EDLV 261350Z 32007KT CAVOK 22/07 Q1034
EHDL - Deelen Rnlafb, Netherlands
Afstand tot: N 35 km
Gewijzigd: May 27 2020 12:55 am
Bewolking  
Bewolking  
   Wind: varieert 1.9 km/h
Wind: varieert 1.9 km/h
Temperatuur: 11°C
Dauwpunt: 9°C
Vochtigheid: 88%
Barometer: 1034 hPa
Bewolking: Bewolking
Zicht: meer dan 10 km
Bewolking: Bewolking 34000 ft
EHDL 262255Z AUTO VRB01KT 9999 OVC340 11/09 Q1034 BLU
EHEH - Eindhoven Rnlafb, Netherlands
Afstand tot: ZW 48 km
Gewijzigd: May 27 2020 12:55 am
Bewolking  
Bewolking  
   Wind: NNW 3.7 km/h
Wind: NNW 3.7 km/h
Temperatuur: 14°C
Dauwpunt: 10°C
Vochtigheid: 77%
Barometer: 1034 hPa
Bewolking: Bewolking
Zicht: meer dan 10 km
Bewolking: Bewolking 35000 ft
EHEH 262255Z AUTO 33002KT 9999 OVC350 14/10 Q1034 BLU
EHGR - Gilze-Rijen Rnla, Netherlands
Afstand tot: WZW 70 km
Gewijzigd: May 27 2020 12:55 am
Grotendeels bewolkt  
Grotendeels bewolkt  
   Wind: Noorden 11.1 km/h
Wind: Noorden 11.1 km/h
Temperatuur: 15°C
Dauwpunt: 9°C
Vochtigheid: 68%
Barometer: 1034 hPa
Bewolking: Grotendeels bewolkt
Zicht: meer dan 10 km
Bewolking: Grotendeels bewolkt 35000 ft
EHGR 262255Z AUTO 35006KT 320V040 9999 BKN350 15/09 Q1034 BLU
EBBL - Kleine-Brogel(Ba, Belgium
Afstand tot: ZZW 71 km
Gewijzigd: May 27 2020 12:55 am
Helder  
Helder  
   Wind: varieert 1.9 km/h
Wind: varieert 1.9 km/h
Temperatuur: 13°C
Dauwpunt: 9°C
Vochtigheid: 77%
Barometer: 1034 hPa
Bewolking: Helder
Zicht: meer dan 10 km
Bewolking: Helder
EBBL 262255Z AUTO VRB01KT 9999 NCD 13/09 Q1034 BLU

Script ontwikkeld door  Saratoga-weather.org Aangepast voor de template door  Weerstation Leuven

U vindt ons ook hier:

UK Metoffice

WeatherCloud

AWEKAS

Apparatuur in gebruik:

Weerstation
Davis VP2

Weerprogramma
Weather Display

Webleverancier
WebReus.nl

Davis VP2

Weather Display

WebReus.nl


Weerstation-Wijk.nl. Voor het weer van Wijk bij Duurstede en omstreken